首页
METAR-TAF:

METAR-TAF

机场 :

Shelby County Airport

阿拉巴斯特, 阿拉巴马州, 美国

纬度: 33-10-42N, 经度: 086-46-54W, 海拔: 178米

当前天气观测

该预报发布于25分钟前的00:53 UTC
风速4节,风向北转西北
温度 3°C
湿度 93%
气压 1024 hPa
能見度: 16.1公里
多云层高于1100英尺
阴天层高于1400英尺
小雨

METAR: KEET 110053Z AUTO 34004KT 10SM -RA BKN011 OVC014 03/02 A3023 RMK AO2 RAE31B52 CIG 008V012 SLP239 P0000 T00330022

时间: 19:18 (01:18 UTC)

预报

该预报发布于1小时和44分钟前的23:34 UTC
预报有效从11日的 00点(UTC)到 11日的 24点(UTC)
风速5节,风向西北
能見度: 8.0公里
阴天层高于900英尺
小毛毛雨
从 11日的 0300点(UTC)
风速4节,风向北转西北
能見度: 9.7公里
阴天层高于1500英尺
轻雾
从 11日的 0600点(UTC)
风速节,风向
能見度: 10公里
散云层高于25000英尺

TAF: KEET 102334Z 1100/1124 32005KT 5SM -DZ OVC009 FM110300 33004KT 6SM BR OVC015 FM110600 00000KT P6SM SCT250

超过4000个机场的气象观测和天气预报(METAR&TAF报告)。

可查询的气象台以黄色和红色小点在地图上表示。

将鼠标移到小点上方,可查看气象台名称。

然后点击查看天气观测和预报。

如需切换地图:点击带黑十字的绿色按钮放大地图;点击带横线的绿色按钮缩小地图;或者点击绿色箭头查看邻近地区的地图。


METAR-TAF: